Time;durP1;ratioP1;P1;durP2;ratioP2;P2;SDS_P1;SDS_P2;PMS_P1;PMS_P2;Temp;Humidity;BMP_temperature;BMP_pressure;BME280_temperature;BME280_humidity;BME280_pressure;Samples;Min_cycle;Max_cycle;Signal;HPM_P1;HPM_P2
2020/12/13 00:00:34;;;;;;;26.80;9.95;;;6.80;99.90;;;;;;5021899;28;20490;-61
2020/12/13 00:03:00;;;;;;;29.55;10.07;;;6.80;99.90;;;;;;5020221;28;20033;-59
2020/12/13 00:05:25;;;;;;;24.77;8.95;;;6.80;99.90;;;;;;5018882;28;20510;-59
2020/12/13 00:07:55;;;;;;;25.02;8.65;;;6.90;99.90;;;;;;5019731;28;20487;-59
2020/12/13 00:10:21;;;;;;;24.50;8.32;;;6.90;99.90;;;;;;5023504;28;20354;-61
2020/12/13 00:12:47;;;;;;;23.45;7.85;;;6.90;99.90;;;;;;5016442;28;20161;-59
2020/12/13 00:15:13;;;;;;;22.67;8.75;;;6.90;99.90;;;;;;5037162;28;20084;-63
2020/12/13 00:17:39;;;;;;;30.58;8.75;;;6.90;99.90;;;;;;5018548;28;20025;-58
2020/12/13 00:20:07;;;;;;;23.90;7.72;;;6.90;99.90;;;;;;5041494;28;20040;-59
2020/12/13 00:22:33;;;;;;;23.92;8.20;;;6.90;99.90;;;;;;5018422;28;20190;-59
2020/12/13 00:24:59;;;;;;;23.42;7.97;;;6.90;99.90;;;;;;5015442;28;20528;-58
2020/12/13 00:27:25;;;;;;;19.88;8.27;;;6.90;99.90;;;;;;5021055;28;20110;-59
2020/12/13 00:29:50;;;;;;;23.90;8.98;;;7.00;99.90;;;;;;5017839;28;20664;-60
2020/12/13 00:32:16;;;;;;;26.42;8.68;;;7.00;99.90;;;;;;5017783;28;20376;-59
2020/12/13 00:34:41;;;;;;;24.98;8.45;;;7.00;99.90;;;;;;5022936;28;20037;-58
2020/12/13 00:37:07;;;;;;;27.98;8.75;;;7.00;99.90;;;;;;5017623;28;20109;-58
2020/12/13 00:39:34;;;;;;;21.58;9.07;;;7.00;99.90;;;;;;5020448;28;20491;-62
2020/12/13 00:42:00;;;;;;;21.23;8.18;;;7.00;99.90;;;;;;5020065;28;20025;-58
2020/12/13 00:44:25;;;;;;;23.83;8.60;;;7.10;99.90;;;;;;5016817;28;20040;-59
2020/12/13 00:46:51;;;;;;;22.58;8.75;;;7.10;99.90;;;;;;5017210;28;20485;-59
2020/12/13 00:49:17;;;;;;;18.48;7.47;;;7.10;99.90;;;;;;5017578;28;20115;-62
2020/12/13 00:51:43;;;;;;;25.23;8.50;;;7.20;99.90;;;;;;5018852;28;20022;-58
2020/12/13 00:54:08;;;;;;;25.85;9.30;;;7.20;99.90;;;;;;5018046;28;20415;-60
2020/12/13 00:56:34;;;;;;;25.85;9.02;;;7.20;99.90;;;;;;5016850;28;20030;-60
2020/12/13 00:59:00;;;;;;;27.10;9.43;;;7.20;99.90;;;;;;5015509;28;20482;-58
2020/12/13 01:01:25;;;;;;;28.27;8.85;;;7.20;99.90;;;;;;5016039;28;20418;-59
2020/12/13 01:03:51;;;;;;;41.05;9.70;;;7.20;99.90;;;;;;5018699;28;20413;-59
2020/12/13 01:06:21;;;;;;;25.63;8.77;;;7.20;99.90;;;;;;5017463;28;20052;-60
2020/12/13 01:08:46;;;;;;;28.00;9.10;;;7.20;99.90;;;;;;5019255;28;20117;-58
2020/12/13 01:11:12;;;;;;;24.92;8.43;;;7.20;99.90;;;;;;5017325;28;20030;-59
2020/12/13 01:13:38;;;;;;;29.83;8.82;;;7.20;99.90;;;;;;5019739;28;20041;-60
2020/12/13 01:16:03;;;;;;;26.55;8.75;;;7.20;99.90;;;;;;5016831;28;20037;-58
2020/12/13 01:18:29;;;;;;;29.35;9.20;;;7.20;99.90;;;;;;5019075;28;20037;-59
2020/12/13 01:20:54;;;;;;;30.73;10.23;;;7.20;99.90;;;;;;5017923;28;20124;-59
2020/12/13 01:23:20;;;;;;;36.40;10.70;;;7.20;99.90;;;;;;5017635;28;20096;-60
2020/12/13 01:25:45;;;;;;;27.23;9.98;;;7.20;99.90;;;;;;5018775;28;20418;-58
2020/12/13 01:28:11;;;;;;;37.80;11.82;;;7.20;99.90;;;;;;5020693;28;20401;-59
2020/12/13 01:30:36;;;;;;;33.05;11.38;;;7.20;99.90;;;;;;5016254;28;20038;-59
2020/12/13 01:33:02;;;;;;;28.52;9.88;;;7.30;99.90;;;;;;5019349;28;20027;-59
2020/12/13 01:35:28;;;;;;;32.30;10.77;;;7.30;99.90;;;;;;5016796;28;20061;-59
2020/12/13 01:37:53;;;;;;;34.17;10.25;;;7.30;99.90;;;;;;5018180;28;20034;-60
2020/12/13 01:40:19;;;;;;;32.72;9.18;;;7.30;99.90;;;;;;5018329;28;20029;-60
2020/12/13 01:42:45;;;;;;;32.35;10.13;;;7.30;99.90;;;;;;5016893;28;20026;-58
2020/12/13 01:45:13;;;;;;;33.17;10.60;;;7.30;99.90;;;;;;5015393;28;20084;-61
2020/12/13 01:47:39;;;;;;;29.98;10.23;;;7.30;99.90;;;;;;5018959;28;20039;-60
2020/12/13 01:50:13;;;;;;;35.65;11.90;;;7.30;99.90;;;;;;5016377;28;20030;-59
2020/12/13 01:52:44;;;;;;;39.58;10.52;;;7.40;99.90;;;;;;5012385;28;20034;-59
2020/12/13 01:55:11;;;;;;;36.58;10.65;;;7.40;99.90;;;;;;5019655;28;20030;-58
2020/12/13 01:57:39;;;;;;;34.85;10.90;;;7.40;99.90;;;;;;5015802;28;20551;-58
2020/12/13 02:00:10;;;;;;;30.95;9.95;;;7.40;99.90;;;;;;5012559;28;20030;-59
2020/12/13 02:02:45;;;;;;;33.28;10.98;;;7.40;99.90;;;;;;5012174;28;20465;-61
2020/12/13 02:05:13;;;;;;;32.33;10.35;;;7.40;99.90;;;;;;5011784;28;20037;-62
2020/12/13 02:07:41;;;;;;;27.08;9.20;;;7.40;99.90;;;;;;5018886;28;20508;-60
2020/12/13 02:10:08;;;;;;;35.55;10.18;;;7.40;99.90;;;;;;5016164;28;20034;-59
2020/12/13 02:12:34;;;;;;;29.05;10.35;;;7.40;99.90;;;;;;5034746;28;20025;-61
2020/12/13 02:15:00;;;;;;;31.73;10.27;;;7.40;99.90;;;;;;5015898;28;20084;-60
2020/12/13 02:17:25;;;;;;;34.25;10.65;;;7.50;99.90;;;;;;5041774;28;20491;-62
2020/12/13 02:19:51;;;;;;;32.40;10.77;;;7.40;99.90;;;;;;5016432;28;20262;-59
2020/12/13 02:22:20;;;;;;;25.10;8.88;;;7.40;99.90;;;;;;5017308;28;20068;-58
2020/12/13 02:24:45;;;;;;;33.90;9.93;;;7.40;99.90;;;;;;5017483;28;20037;-61
2020/12/13 02:27:11;;;;;;;33.55;10.90;;;7.40;99.90;;;;;;5016204;28;20030;-58
2020/12/13 02:29:36;;;;;;;27.38;10.82;;;7.40;99.90;;;;;;5022941;28;20038;-58
2020/12/13 02:32:03;;;;;;;35.35;10.75;;;7.40;99.90;;;;;;5021486;28;20108;-58
2020/12/13 02:34:29;;;;;;;25.33;9.82;;;7.40;99.90;;;;;;5022337;28;20049;-59
2020/12/13 02:36:55;;;;;;;30.55;10.52;;;7.50;99.90;;;;;;5048151;28;20524;-59
2020/12/13 02:39:20;;;;;;;34.03;11.68;;;7.50;99.90;;;;;;5021990;28;20049;-61
2020/12/13 02:42:00;;;;;;;30.17;11.27;;;7.50;99.90;;;;;;5023289;28;20030;-59
2020/12/13 02:44:26;;;;;;;26.63;11.20;;;7.50;99.90;;;;;;5022456;28;20042;-58
2020/12/13 02:46:52;;;;;;;36.83;11.27;;;7.50;99.90;;;;;;5023883;28;20049;-60
2020/12/13 02:49:17;;;;;;;34.92;12.30;;;7.50;99.90;;;;;;5023929;28;20474;-60
2020/12/13 02:51:43;;;;;;;35.70;11.73;;;7.50;99.90;;;;;;5022799;28;20022;-59
2020/12/13 02:54:08;;;;;;;40.60;12.18;;;7.50;99.90;;;;;;5024960;28;20585;-61
2020/12/13 02:56:38;;;;;;;34.65;13.23;;;7.50;99.90;;;;;;5022345;28;20026;-58
2020/12/13 02:59:04;;;;;;;30.97;11.43;;;7.50;99.90;;;;;;5018222;28;20391;-62
2020/12/13 03:01:29;;;;;;;31.80;11.18;;;7.50;99.90;;;;;;5017437;28;20276;-59
2020/12/13 03:03:55;;;;;;;33.22;11.32;;;7.50;99.90;;;;;;5022196;28;20407;-60
2020/12/13 03:06:20;;;;;;;34.78;11.82;;;7.60;99.90;;;;;;5024242;28;20061;-59
2020/12/13 03:08:46;;;;;;;37.03;12.00;;;7.60;99.90;;;;;;5023350;28;20037;-61
2020/12/13 03:11:11;;;;;;;31.83;10.80;;;7.60;99.90;;;;;;5023221;28;20040;-59
2020/12/13 03:13:37;;;;;;;33.33;11.85;;;7.60;99.90;;;;;;5024676;28;20042;-60
2020/12/13 03:16:02;;;;;;;38.60;12.43;;;7.60;99.90;;;;;;5044946;28;20486;-61
2020/12/13 03:18:28;;;;;;;41.78;11.45;;;7.60;99.90;;;;;;5025179;28;20048;-59
2020/12/13 03:20:54;;;;;;;34.60;12.15;;;7.60;99.90;;;;;;5021835;28;20034;-59
2020/12/13 03:23:19;;;;;;;34.28;12.55;;;7.60;99.90;;;;;;5023920;28;20061;-61
2020/12/13 03:25:45;;;;;;;33.70;11.85;;;7.50;99.90;;;;;;5023340;28;20095;-59
2020/12/13 03:28:10;;;;;;;34.47;11.48;;;7.50;99.90;;;;;;5022664;28;20037;-59
2020/12/13 03:30:36;;;;;;;31.50;10.50;;;7.60;99.90;;;;;;5024543;28;20041;-61
2020/12/13 03:33:01;;;;;;;32.70;12.23;;;7.60;99.90;;;;;;5021355;28;20044;-60
2020/12/13 03:35:27;;;;;;;42.00;12.52;;;7.60;99.90;;;;;;5024973;28;20037;-59
2020/12/13 03:37:52;;;;;;;28.00;10.57;;;7.60;99.90;;;;;;5021817;28;20026;-63
2020/12/13 03:40:18;;;;;;;26.70;11.30;;;7.60;99.90;;;;;;5021006;28;20150;-58
2020/12/13 03:42:44;;;;;;;30.92;10.90;;;7.60;99.90;;;;;;5020359;28;20371;-58
2020/12/13 03:45:09;;;;;;;31.85;11.00;;;7.60;99.90;;;;;;5018846;28;20038;-61
2020/12/13 03:47:35;;;;;;;32.38;11.10;;;7.60;99.90;;;;;;5021501;28;20034;-59
2020/12/13 03:50:02;;;;;;;31.10;12.07;;;7.60;99.90;;;;;;5022062;28;20034;-59
2020/12/13 03:52:28;;;;;;;32.55;11.80;;;7.60;99.90;;;;;;5014891;28;20034;-58
2020/12/13 03:54:54;;;;;;;35.25;13.45;;;7.60;99.90;;;;;;5020740;28;20036;-59
2020/12/13 03:57:19;;;;;;;27.75;10.52;;;7.60;99.90;;;;;;5019244;28;20102;-59
2020/12/13 03:59:45;;;;;;;32.88;10.95;;;7.70;99.90;;;;;;5020095;28;20116;-59
2020/12/13 04:02:10;;;;;;;31.30;10.93;;;7.60;99.90;;;;;;5019924;28;20060;-59
2020/12/13 04:04:36;;;;;;;30.77;10.27;;;7.60;99.90;;;;;;5018791;28;20129;-59
2020/12/13 04:07:02;;;;;;;36.03;11.02;;;7.60;99.90;;;;;;5020840;28;20026;-58
2020/12/13 04:09:27;;;;;;;44.55;9.82;;;7.60;99.90;;;;;;5041816;28;20053;-61
2020/12/13 04:11:53;;;;;;;31.92;11.38;;;7.60;99.90;;;;;;5021225;28;20029;-59
2020/12/13 04:14:18;;;;;;;33.33;11.52;;;7.60;99.90;;;;;;5016551;28;20041;-59
2020/12/13 04:16:44;;;;;;;34.75;11.75;;;7.60;99.90;;;;;;5019934;28;20026;-60
2020/12/13 04:19:10;;;;;;;28.40;9.98;;;7.60;99.90;;;;;;5019308;28;20026;-60
2020/12/13 04:21:36;;;;;;;30.95;11.18;;;7.60;99.90;;;;;;5018535;28;20664;-58
2020/12/13 04:24:03;;;;;;;34.33;10.38;;;7.60;99.90;;;;;;5020044;28;20037;-60
2020/12/13 04:26:28;;;;;;;28.80;11.05;;;7.60;99.90;;;;;;5017875;28;20026;-58
2020/12/13 04:28:54;;;;;;;32.80;10.52;;;7.60;99.90;;;;;;5021376;28;20029;-58
2020/12/13 04:31:21;;;;;;;31.65;10.75;;;7.60;99.90;;;;;;5017950;28;20030;-61
2020/12/13 04:33:46;;;;;;;27.67;9.55;;;7.60;99.90;;;;;;5020196;28;20037;-58
2020/12/13 04:36:12;;;;;;;34.92;10.63;;;7.60;99.90;;;;;;5018744;28;20029;-59
2020/12/13 04:38:37;;;;;;;27.52;9.75;;;7.60;99.90;;;;;;5018942;28;20033;-58
2020/12/13 04:41:03;;;;;;;28.27;9.40;;;7.60;99.90;;;;;;5020272;28;20030;-59
2020/12/13 04:43:29;;;;;;;27.60;9.80;;;7.60;99.90;;;;;;5016845;28;20037;-60
2020/12/13 04:45:56;;;;;;;28.45;9.50;;;7.60;99.90;;;;;;5021482;28;20084;-59
2020/12/13 04:48:23;;;;;;;34.42;9.68;;;7.50;99.90;;;;;;5017100;28;20065;-60
2020/12/13 04:50:50;;;;;;;35.25;9.98;;;7.50;99.90;;;;;;5019995;28;20041;-60
2020/12/13 04:53:17;;;;;;;23.95;9.38;;;7.50;99.90;;;;;;5017402;28;20048;-60
2020/12/13 04:55:46;;;;;;;24.60;8.73;;;7.50;99.90;;;;;;5019041;28;20037;-59
2020/12/13 04:58:13;;;;;;;28.55;9.18;;;7.50;99.90;;;;;;5018150;28;20398;-60
2020/12/13 05:00:44;;;;;;;23.63;8.82;;;7.50;99.90;;;;;;5018527;28;20026;-60
2020/12/13 05:03:13;;;;;;;26.23;9.48;;;7.50;99.90;;;;;;5018461;28;20044;-61
2020/12/13 05:05:39;;;;;;;29.15;9.50;;;7.50;99.90;;;;;;5018411;28;20049;-61
2020/12/13 05:08:05;;;;;;;28.40;9.25;;;7.50;99.90;;;;;;5019156;28;20502;-60
2020/12/13 05:10:30;;;;;;;26.75;9.63;;;7.50;99.90;;;;;;5017199;28;20037;-61
2020/12/13 05:12:57;;;;;;;25.95;8.55;;;7.50;99.90;;;;;;5020139;28;20037;-62
2020/12/13 05:15:23;;;;;;;22.52;7.40;;;7.50;99.90;;;;;;5012690;28;20042;-60
2020/12/13 05:17:49;;;;;;;23.25;8.77;;;7.50;99.90;;;;;;5019636;28;20045;-60
2020/12/13 05:20:18;;;;;;;20.63;8.90;;;7.40;99.90;;;;;;5017425;28;20032;-60
2020/12/13 05:22:45;;;;;;;19.90;8.07;;;7.40;99.90;;;;;;5019256;28;20034;-58
2020/12/13 05:25:13;;;;;;;18.63;8.60;;;7.50;99.90;;;;;;5017604;28;20112;-61
2020/12/13 05:27:41;;;;;;;21.35;8.02;;;7.40;99.90;;;;;;5017849;28;20026;-60
2020/12/13 05:30:08;;;;;;;22.13;7.80;;;7.40;99.90;;;;;;5017991;28;20037;-59
2020/12/13 05:32:33;;;;;;;22.88;8.10;;;7.40;99.90;;;;;;5018434;28;20047;-60
2020/12/13 05:34:59;;;;;;;19.30;8.27;;;7.40;99.90;;;;;;5017279;28;20124;-60
2020/12/13 05:37:29;;;;;;;19.77;8.05;;;7.40;99.90;;;;;;5019158;28;20041;-60
2020/12/13 05:39:55;;;;;;;25.10;8.68;;;7.50;99.90;;;;;;5013340;28;20038;-61
2020/12/13 05:42:39;;;;;;;27.77;8.73;;;7.50;99.90;;;;;;5011199;28;20387;-62
2020/12/13 05:52:52;;;;;;;23.38;8.15;;;7.50;99.90;;;;;;5023120;28;20079;-61
2020/12/13 05:55:18;;;;;;;22.70;7.57;;;7.50;99.90;;;;;;5016158;28;20041;-59
2020/12/13 05:57:48;;;;;;;22.33;7.57;;;7.50;99.90;;;;;;5041721;28;20048;-60
2020/12/13 06:00:15;;;;;;;22.23;7.35;;;7.50;99.90;;;;;;5015345;28;20029;-61
2020/12/13 06:02:44;;;;;;;26.98;8.02;;;7.50;99.90;;;;;;5041164;28;20446;-61
2020/12/13 06:05:15;;;;;;;24.38;7.90;;;7.50;99.90;;;;;;5017149;28;20029;-61
2020/12/13 06:07:48;;;;;;;19.50;7.32;;;7.50;99.90;;;;;;5018091;28;20125;-60
2020/12/13 06:10:23;;;;;;;26.30;8.63;;;7.50;99.90;;;;;;5017042;28;20037;-60
2020/12/13 06:12:58;;;;;;;26.08;8.43;;;7.50;99.90;;;;;;5011733;28;20033;-59
2020/12/13 06:15:26;;;;;;;26.88;8.40;;;7.50;99.90;;;;;;5012933;28;20089;-63
2020/12/13 06:17:52;;;;;;;32.70;8.85;;;7.50;99.90;;;;;;5018986;28;20390;-61
2020/12/13 06:20:18;;;;;;;24.63;8.93;;;7.50;99.90;;;;;;5012101;28;20038;-61
2020/12/13 06:22:45;;;;;;;27.17;7.93;;;7.50;99.90;;;;;;5018025;28;20033;-60
2020/12/13 06:25:11;;;;;;;28.25;8.27;;;7.50;99.90;;;;;;5016581;28;20068;-61
2020/12/13 06:27:37;;;;;;;19.70;8.00;;;7.60;99.90;;;;;;5017210;28;20081;-60
2020/12/13 06:30:08;;;;;;;22.60;7.88;;;7.60;99.90;;;;;;5017776;28;20470;-61
2020/12/13 06:32:41;;;;;;;16.83;7.07;;;7.60;99.90;;;;;;5016851;28;20458;-60
2020/12/13 06:35:08;;;;;;;23.85;8.13;;;7.60;99.90;;;;;;5015012;28;20029;-61
2020/12/13 06:37:36;;;;;;;17.00;7.05;;;7.70;99.90;;;;;;5017786;28;20503;-63
2020/12/13 06:40:08;;;;;;;16.92;6.93;;;7.70;99.90;;;;;;5016525;28;20037;-61
2020/12/13 06:42:42;;;;;;;19.58;7.65;;;7.70;99.90;;;;;;5017507;28;20041;-60
2020/12/13 06:45:13;;;;;;;23.42;7.53;;;7.70;99.90;;;;;;5017280;28;20045;-60
2020/12/13 06:47:41;;;;;;;18.05;7.15;;;7.70;99.90;;;;;;5016646;28;20037;-61
2020/12/13 06:50:19;;;;;;;17.05;7.13;;;7.70;99.90;;;;;;5017626;28;20034;-61
2020/12/13 06:52:45;;;;;;;19.35;7.18;;;7.70;99.90;;;;;;5015363;28;20462;-66
2020/12/13 06:55:11;;;;;;;18.17;8.10;;;7.70;99.90;;;;;;5018085;28;20026;-60
2020/12/13 06:57:37;;;;;;;19.17;8.35;;;7.70;99.90;;;;;;5016542;28;20065;-59
2020/12/13 07:00:09;;;;;;;17.95;7.25;;;7.80;99.90;;;;;;5039693;28;20077;-60
2020/12/13 07:02:56;;;;;;;21.38;7.68;;;7.80;99.90;;;;;;5015835;28;20030;-60
2020/12/13 07:05:45;;;;;;;21.00;8.10;;;7.80;99.90;;;;;;5011916;28;20057;-59
2020/12/13 07:08:21;;;;;;;18.27;8.30;;;7.80;99.90;;;;;;5015580;28;20375;-59
2020/12/13 07:10:50;;;;;;;17.15;7.60;;;7.80;99.90;;;;;;5011712;28;20030;-60
2020/12/13 07:13:20;;;;;;;16.90;7.65;;;7.80;99.90;;;;;;5011264;28;20034;-61
2020/12/13 07:16:08;;;;;;;24.57;8.57;;;7.70;99.90;;;;;;5014444;28;20125;-60
2020/12/13 07:18:36;;;;;;;19.92;8.30;;;7.80;99.90;;;;;;5019497;28;20494;-61
2020/12/13 07:21:02;;;;;;;19.63;8.38;;;7.80;99.90;;;;;;5020951;28;20034;-61
2020/12/13 07:23:27;;;;;;;18.23;7.60;;;7.80;99.90;;;;;;5042838;28;20103;-61
2020/12/13 07:25:54;;;;;;;24.77;9.27;;;7.80;99.90;;;;;;5021638;28;20034;-61
2020/12/13 07:28:21;;;;;;;24.75;8.15;;;7.80;99.90;;;;;;5018444;28;20038;-61
2020/12/13 07:30:47;;;;;;;26.45;8.23;;;7.80;99.90;;;;;;5022402;28;20064;-60
2020/12/13 07:33:13;;;;;;;20.98;7.85;;;7.80;99.90;;;;;;5018636;28;20057;-60
2020/12/13 07:35:40;;;;;;;23.30;9.07;;;7.70;99.90;;;;;;5021138;28;20531;-61
2020/12/13 07:38:06;;;;;;;23.80;8.77;;;7.70;99.90;;;;;;5019814;28;20510;-60
2020/12/13 07:40:31;;;;;;;21.05;8.07;;;7.70;99.90;;;;;;5019672;28;20034;-60
2020/12/13 07:42:59;;;;;;;23.92;9.40;;;7.70;99.90;;;;;;5020739;28;20133;-60
2020/12/13 07:45:25;;;;;;;23.52;9.25;;;7.70;99.90;;;;;;5018661;28;20403;-60
2020/12/13 07:48:00;;;;;;;32.42;8.63;;;7.70;99.90;;;;;;5021547;28;20034;-59
2020/12/13 07:50:28;;;;;;;24.35;8.43;;;7.60;99.90;;;;;;5018970;28;20045;-61
2020/12/13 07:52:53;;;;;;;20.83;7.53;;;7.60;99.90;;;;;;5020968;28;20481;-58
2020/12/13 07:55:19;;;;;;;28.33;8.65;;;7.50;99.90;;;;;;5018154;28;20034;-61
2020/12/13 07:57:48;;;;;;;25.50;9.45;;;7.50;99.90;;;;;;5017555;28;20486;-60
2020/12/13 08:00:15;;;;;;;27.08;9.02;;;7.50;99.90;;;;;;5014385;28;20030;-62
2020/12/13 08:02:40;;;;;;;23.25;9.13;;;7.50;99.90;;;;;;5019590;28;20327;-60
2020/12/13 08:05:06;;;;;;;25.45;8.73;;;7.50;99.90;;;;;;5018760;28;20552;-61
2020/12/13 08:07:31;;;;;;;25.58;8.77;;;7.50;99.90;;;;;;5019015;28;20060;-62
2020/12/13 08:09:58;;;;;;;22.08;9.63;;;7.50;99.90;;;;;;5008425;28;20414;-60
2020/12/13 08:12:37;;;;;;;24.75;8.60;;;7.50;99.90;;;;;;5018494;28;20036;-60
2020/12/13 08:15:04;;;;;;;26.77;8.53;;;7.50;99.90;;;;;;5021413;28;20029;-61
2020/12/13 08:17:30;;;;;;;25.80;8.30;;;7.50;99.90;;;;;;5019165;28;20282;-59
2020/12/13 08:20:02;;;;;;;17.55;8.27;;;7.50;99.90;;;;;;5019576;28;20037;-60
2020/12/13 08:22:32;;;;;;;27.20;7.85;;;7.50;99.90;;;;;;5021468;28;20065;-59
2020/12/13 08:25:03;;;;;;;23.90;7.55;;;7.50;99.90;;;;;;5019242;28;20125;-60
2020/12/13 08:27:31;;;;;;;19.38;7.13;;;7.50;99.90;;;;;;5014604;28;20041;-60
2020/12/13 08:29:58;;;;;;;21.73;7.22;;;7.50;99.90;;;;;;5011604;28;21240;-59
2020/12/13 08:32:30;;;;;;;27.67;8.02;;;7.50;99.90;;;;;;5013644;28;20111;-60
2020/12/13 08:35:11;;;;;;;18.40;5.68;;;7.50;99.90;;;;;;5018374;28;20502;-60
2020/12/13 08:37:37;;;;;;;19.58;6.10;;;7.60;99.90;;;;;;5019020;28;20042;-60
2020/12/13 08:40:07;;;;;;;20.75;6.07;;;7.60;99.90;;;;;;5021144;28;20771;-59
2020/12/13 08:42:33;;;;;;;15.25;6.03;;;7.60;99.90;;;;;;5019416;28;20045;-59
2020/12/13 08:44:59;;;;;;;21.27;5.50;;;7.60;99.90;;;;;;5021599;28;20401;-61
2020/12/13 08:47:32;;;;;;;20.48;5.07;;;7.60;99.90;;;;;;5019055;28;20137;-62
2020/12/13 08:49:59;;;;;;;15.60;5.07;;;7.60;99.90;;;;;;5015907;28;20117;-60
2020/12/13 08:52:26;;;;;;;15.77;4.90;;;7.70;99.90;;;;;;5021553;28;20040;-60
2020/12/13 08:54:57;;;;;;;23.38;6.78;;;7.70;99.90;;;;;;5019927;28;20030;-61
2020/12/13 08:57:36;;;;;;;15.65;4.93;;;7.70;99.90;;;;;;5020155;28;20403;-60
2020/12/13 09:00:12;;;;;;;18.17;5.45;;;7.70;99.90;;;;;;5018743;28;20064;-62
2020/12/13 09:02:38;;;;;;;17.10;5.05;;;7.70;99.90;;;;;;5017513;28;20044;-62
2020/12/13 09:05:06;;;;;;;15.38;4.82;;;7.70;99.90;;;;;;5020643;28;20049;-60
2020/12/13 09:07:32;;;;;;;19.13;5.07;;;7.80;99.90;;;;;;5017628;28;20066;-61
2020/12/13 09:10:10;;;;;;;16.33;5.00;;;7.80;99.90;;;;;;5011352;28;20124;-59
2020/12/13 09:12:37;;;;;;;16.58;4.35;;;7.80;99.90;;;;;;5011803;28;20043;-59
2020/12/13 09:15:14;;;;;;;13.45;4.60;;;7.80;99.90;;;;;;5014574;28;20121;-60
2020/12/13 09:17:40;;;;;;;10.68;4.25;;;7.80;99.90;;;;;;5009816;28;20041;-59
2020/12/13 09:20:07;;;;;;;12.48;5.10;;;7.80;99.90;;;;;;5014473;28;20375;-60
2020/12/13 09:22:33;;;;;;;17.15;4.35;;;7.80;99.90;;;;;;5009625;28;20053;-59
2020/12/13 09:24:59;;;;;;;14.35;4.40;;;7.80;99.90;;;;;;5013396;28;20037;-60
2020/12/13 09:27:26;;;;;;;17.42;4.47;;;7.70;99.90;;;;;;5011635;28;20080;-59
2020/12/13 09:29:53;;;;;;;20.55;5.82;;;7.70;99.90;;;;;;5013101;28;20121;-60
2020/12/13 09:32:20;;;;;;;17.17;4.75;;;7.60;99.90;;;;;;5018651;28;20042;-60
2020/12/13 09:34:47;;;;;;;12.07;4.45;;;7.50;99.90;;;;;;5009489;28;20034;-63
2020/12/13 09:37:21;;;;;;;13.18;5.38;;;7.50;99.90;;;;;;5013442;28;20037;-59
2020/12/13 09:39:47;;;;;;;15.95;5.50;;;7.50;99.90;;;;;;5005896;28;20038;-60
2020/12/13 09:42:13;;;;;;;11.63;4.88;;;7.40;99.90;;;;;;5010869;28;20367;-61
2020/12/13 09:44:38;;;;;;;14.27;5.28;;;7.40;99.90;;;;;;5012070;28;20033;-62
2020/12/13 09:47:04;;;;;;;16.55;6.32;;;7.30;99.90;;;;;;5017784;28;20036;-60
2020/12/13 09:49:30;;;;;;;17.10;5.95;;;7.30;99.90;;;;;;5015342;28;20034;-61
2020/12/13 09:52:01;;;;;;;19.45;6.07;;;7.20;99.90;;;;;;5015013;28;20034;-60
2020/12/13 09:54:27;;;;;;;21.55;6.50;;;7.20;99.90;;;;;;5017924;28;20045;-60
2020/12/13 09:56:53;;;;;;;18.00;5.90;;;7.20;99.90;;;;;;5012714;28;20406;-60
2020/12/13 09:59:19;;;;;;;18.70;6.15;;;7.30;99.90;;;;;;5010996;28;20455;-60
2020/12/13 10:01:46;;;;;;;17.92;5.10;;;7.20;99.90;;;;;;5011605;28;20372;-61
2020/12/13 10:04:11;;;;;;;19.20;5.22;;;7.20;99.90;;;;;;5009061;28;20034;-61
2020/12/13 10:06:49;;;;;;;21.67;5.93;;;7.20;99.90;;;;;;5005538;28;20104;-61
2020/12/13 10:09:16;;;;;;;16.75;5.35;;;7.20;99.90;;;;;;5016363;28;20076;-59
2020/12/13 10:11:43;;;;;;;14.25;4.85;;;7.20;99.90;;;;;;5019978;28;20041;-60
2020/12/13 10:14:11;;;;;;;12.80;4.57;;;7.20;99.90;;;;;;5014017;28;20041;-61
2020/12/13 10:16:40;;;;;;;18.80;5.63;;;7.20;99.90;;;;;;5013070;28;20033;-61
2020/12/13 10:19:07;;;;;;;11.60;5.68;;;7.20;99.90;;;;;;5003088;28;20034;-61
2020/12/13 10:21:35;;;;;;;12.02;4.55;;;7.10;99.90;;;;;;5007296;28;20033;-60
2020/12/13 10:24:01;;;;;;;13.95;4.78;;;7.20;99.90;;;;;;5008217;28;20393;-61
2020/12/13 10:26:29;;;;;;;17.95;5.82;;;7.10;99.90;;;;;;5019305;28;20589;-60
2020/12/13 10:28:55;;;;;;;16.60;6.63;;;7.10;99.90;;;;;;5018358;28;20044;-64
2020/12/13 10:31:35;;;;;;;18.73;6.00;;;7.10;99.90;;;;;;5016787;28;20434;-59
2020/12/13 10:34:06;;;;;;;12.20;4.75;;;7.00;99.90;;;;;;5016794;28;20121;-62
2020/12/13 10:36:36;;;;;;;17.33;5.30;;;7.00;99.90;;;;;;5017122;28;20045;-60
2020/12/13 10:39:05;;;;;;;13.00;4.97;;;7.00;99.90;;;;;;5015914;28;20068;-60
2020/12/13 10:41:32;;;;;;;15.82;5.53;;;7.00;99.90;;;;;;5011247;28;20058;-61
2020/12/13 10:43:57;;;;;;;22.23;5.68;;;7.10;99.90;;;;;;5016577;28;20037;-68
2020/12/13 10:46:23;;;;;;;21.42;6.50;;;7.10;99.90;;;;;;5009355;28;20050;-61
2020/12/13 10:48:49;;;;;;;12.95;5.38;;;7.20;99.90;;;;;;5015832;28;20037;-61
2020/12/13 10:51:16;;;;;;;19.45;5.78;;;7.30;99.90;;;;;;5021016;28;20029;-58
2020/12/13 10:53:43;;;;;;;14.90;4.50;;;7.40;99.90;;;;;;5020653;28;20037;-60
2020/12/13 10:56:09;;;;;;;17.05;5.30;;;7.60;99.90;;;;;;5022924;28;20038;-61
2020/12/13 10:58:34;;;;;;;16.88;4.47;;;7.70;99.90;;;;;;5017100;28;20449;-62
2020/12/13 11:01:03;;;;;;;13.95;4.40;;;7.70;99.90;;;;;;5022646;28;20033;-63
2020/12/13 11:03:28;;;;;;;13.63;4.05;;;7.70;99.90;;;;;;5019548;28;20034;-62
2020/12/13 11:05:55;;;;;;;11.20;4.47;;;7.60;99.90;;;;;;5009909;28;20044;-60
2020/12/13 11:08:22;;;;;;;10.07;4.35;;;7.50;99.90;;;;;;5011901;28;20042;-60
2020/12/13 11:10:49;;;;;;;10.95;3.85;;;7.50;99.90;;;;;;5013894;28;20180;-62
2020/12/13 11:13:15;;;;;;;17.92;5.03;;;7.60;99.90;;;;;;5013875;28;20083;-61
2020/12/13 11:15:43;;;;;;;16.10;4.40;;;7.60;99.90;;;;;;5015025;28;20511;-62
2020/12/13 11:18:08;;;;;;;8.68;3.55;;;7.70;99.90;;;;;;5022372;28;20037;-61
2020/12/13 11:20:34;;;;;;;10.65;3.88;;;7.70;99.90;;;;;;5020446;28;20534;-61
2020/12/13 11:23:00;;;;;;;16.23;4.70;;;7.70;99.90;;;;;;5021697;28;20375;-60
2020/12/13 11:25:25;;;;;;;13.23;4.72;;;7.70;99.90;;;;;;5018629;28;20038;-62
2020/12/13 11:27:51;;;;;;;13.25;4.25;;;7.80;99.90;;;;;;5032912;28;20034;-62
2020/12/13 11:30:16;;;;;;;13.60;4.13;;;7.80;99.90;;;;;;5017085;28;20566;-60
2020/12/13 11:32:44;;;;;;;13.80;4.25;;;7.80;99.90;;;;;;5007961;28;20041;-60
2020/12/13 11:35:12;;;;;;;11.23;4.22;;;7.80;99.90;;;;;;5015796;28;20029;-62
2020/12/13 11:37:38;;;;;;;11.05;4.05;;;7.80;99.90;;;;;;5008522;28;20526;-61
2020/12/13 11:40:05;;;;;;;22.33;4.95;;;7.70;99.90;;;;;;5018524;28;20033;-62
2020/12/13 11:42:31;;;;;;;9.00;3.45;;;7.70;99.90;;;;;;5012282;28;20034;-59
2020/12/13 11:44:56;;;;;;;10.32;3.63;;;7.70;99.90;;;;;;5022759;28;20128;-64
2020/12/13 11:47:22;;;;;;;12.48;3.38;;;7.60;99.90;;;;;;5025328;28;20057;-60
2020/12/13 11:49:47;;;;;;;17.40;4.65;;;7.60;99.90;;;;;;5041561;28;20400;-61
2020/12/13 11:52:13;;;;;;;11.23;3.67;;;7.60;99.90;;;;;;5017005;28;20030;-59
2020/12/13 11:54:39;;;;;;;10.52;3.17;;;7.60;99.90;;;;;;5015350;28;20030;-60
2020/12/13 11:57:05;;;;;;;12.95;3.10;;;7.60;99.90;;;;;;5012983;28;20051;-62
2020/12/13 11:59:30;;;;;;;12.27;3.47;;;7.60;99.90;;;;;;5012169;28;20084;-61
2020/12/13 12:01:56;;;;;;;12.05;3.35;;;7.60;99.90;;;;;;5011297;28;20049;-61
2020/12/13 12:04:23;;;;;;;11.48;2.80;;;7.60;99.90;;;;;;5012511;28;20068;-61
2020/12/13 12:06:49;;;;;;;13.75;3.35;;;7.60;99.90;;;;;;5013735;28;20027;-61
2020/12/13 12:09:15;;;;;;;12.05;3.13;;;7.70;99.90;;;;;;5012881;28;20033;-60
2020/12/13 12:11:41;;;;;;;13.32;3.15;;;7.70;99.90;;;;;;5012952;28;20475;-61
2020/12/13 12:14:11;;;;;;;10.73;2.75;;;7.70;99.90;;;;;;5014889;28;20060;-61
2020/12/13 12:16:38;;;;;;;7.80;2.17;;;7.70;99.90;;;;;;5012553;28;20030;-61
2020/12/13 12:19:04;;;;;;;11.18;2.58;;;7.80;99.90;;;;;;5015917;28;20113;-62
2020/12/13 12:21:30;;;;;;;11.57;2.65;;;7.80;99.90;;;;;;5013049;28;20117;-68
2020/12/13 12:23:56;;;;;;;18.33;2.88;;;7.80;99.90;;;;;;5015981;28;20558;-59
2020/12/13 12:26:27;;;;;;;9.77;2.40;;;7.90;99.90;;;;;;5012287;28;20057;-63
2020/12/13 12:28:53;;;;;;;8.48;2.72;;;7.90;99.90;;;;;;5016667;28;20041;-62
2020/12/13 12:31:19;;;;;;;5.60;2.13;;;7.90;99.90;;;;;;5009592;28;20038;-62
2020/12/13 12:33:45;;;;;;;7.80;2.30;;;8.00;99.90;;;;;;5012290;28;20041;-62
2020/12/13 12:36:20;;;;;;;8.38;1.73;;;8.00;99.90;;;;;;5016046;28;20037;-62
2020/12/13 12:38:47;;;;;;;7.03;2.50;;;8.10;99.90;;;;;;5020877;28;20030;-61
2020/12/13 12:41:15;;;;;;;12.15;3.20;;;8.10;99.90;;;;;;5016480;28;20218;-64
2020/12/13 12:43:41;;;;;;;7.28;2.20;;;8.10;99.90;;;;;;5011520;28;20112;-64
2020/12/13 12:46:07;;;;;;;8.85;2.15;;;8.20;99.90;;;;;;5015703;28;20049;-62
2020/12/13 12:48:33;;;;;;;9.40;1.75;;;8.30;99.90;;;;;;5015755;28;20107;-61
2020/12/13 12:51:04;;;;;;;10.68;2.03;;;8.30;99.90;;;;;;5017914;28;20843;-62
2020/12/13 12:53:30;;;;;;;7.75;2.30;;;8.30;99.90;;;;;;5011660;28;20054;-64